createdAt,value
2024-01-27T00:00:34.651Z,4.24
2024-01-27T00:04:21.715Z,4.74
2024-01-27T00:08:07.693Z,4.32
2024-01-27T00:11:54.659Z,5.23
2024-01-27T00:15:43.722Z,3.69
2024-01-27T00:19:30.666Z,4.30
2024-01-27T00:23:16.701Z,5.93
2024-01-27T00:27:03.761Z,3.84
2024-01-27T00:30:53.653Z,4.52
2024-01-27T00:34:40.692Z,3.89
2024-01-27T00:38:27.762Z,3.85
2024-01-27T00:42:14.747Z,4.33
2024-01-27T00:46:03.711Z,5.18
2024-01-27T00:49:50.871Z,4.56
2024-01-27T00:53:36.638Z,4.09
2024-01-27T00:57:23.803Z,3.36
2024-01-27T01:01:12.838Z,3.48
2024-01-27T01:04:59.730Z,3.43
2024-01-27T01:08:48.762Z,3.33
2024-01-27T01:12:35.805Z,3.35
2024-01-27T01:16:24.648Z,3.52
2024-01-27T01:20:12.712Z,4.35
2024-01-27T01:23:58.708Z,5.00
2024-01-27T01:27:45.710Z,3.77
2024-01-27T01:31:34.645Z,3.70
2024-01-27T01:35:23.732Z,3.88
2024-01-27T01:39:10.735Z,4.26
2024-01-27T01:42:57.672Z,3.58
2024-01-27T01:46:46.662Z,4.10
2024-01-27T01:50:34.669Z,5.61
2024-01-27T01:54:23.945Z,6.40
2024-01-27T01:58:10.732Z,5.37
2024-01-27T02:01:59.755Z,4.48
2024-01-27T02:05:48.793Z,4.57
2024-01-27T02:09:34.757Z,5.05
2024-01-27T02:13:35.672Z,4.12
2024-01-27T02:17:24.764Z,4.67
2024-01-27T02:21:12.568Z,4.84
2024-01-27T02:25:02.726Z,4.27
2024-01-27T02:28:50.712Z,3.97
2024-01-27T02:32:36.779Z,5.21
2024-01-27T02:36:23.813Z,5.52
2024-01-27T02:40:13.671Z,3.83
2024-01-27T02:44:00.707Z,4.32
2024-01-27T02:47:47.895Z,4.30
2024-01-27T02:51:36.685Z,5.12
2024-01-27T02:55:25.692Z,4.58
2024-01-27T02:59:12.681Z,4.57
2024-01-27T03:02:58.674Z,4.36
2024-01-27T03:06:45.730Z,4.85
2024-01-27T03:10:34.728Z,4.20
2024-01-27T03:14:22.649Z,4.72
2024-01-27T03:18:08.806Z,6.47
2024-01-27T03:21:55.687Z,5.38
2024-01-27T03:25:44.791Z,4.95
2024-01-27T03:29:31.718Z,4.60
2024-01-27T03:33:20.949Z,5.54
2024-01-27T03:37:07.661Z,6.07
2024-01-27T03:40:56.755Z,5.40
2024-01-27T03:44:43.740Z,6.79
2024-01-27T03:48:29.846Z,7.97
2024-01-27T03:52:16.744Z,6.17
2024-01-27T03:56:06.671Z,5.07
2024-01-27T03:59:56.804Z,4.76
2024-01-27T04:03:43.708Z,6.64
2024-01-27T04:07:30.690Z,6.38
2024-01-27T04:11:19.700Z,6.78
2024-01-27T04:15:07.793Z,6.48
2024-01-27T04:18:56.777Z,7.89
2024-01-27T04:22:43.732Z,9.23
2024-01-27T04:26:32.731Z,4.71
2024-01-27T04:30:21.784Z,5.79
2024-01-27T04:34:08.830Z,6.32
2024-01-27T04:37:55.746Z,5.72
2024-01-27T04:41:44.668Z,5.56
2024-01-27T04:45:32.742Z,6.20
2024-01-27T04:49:19.853Z,6.31
2024-01-27T04:53:06.679Z,5.30
2024-01-27T04:56:55.821Z,6.84
2024-01-27T05:00:44.872Z,5.65
2024-01-27T05:04:34.697Z,6.11
2024-01-27T05:08:22.743Z,7.49
2024-01-27T05:12:11.803Z,5.60
2024-01-27T05:15:58.799Z,5.48
2024-01-27T05:19:44.768Z,5.77
2024-01-27T05:23:31.725Z,5.44
2024-01-27T05:27:21.774Z,5.31
2024-01-27T05:31:08.724Z,5.42
2024-01-27T05:34:54.878Z,5.48
2024-01-27T05:38:41.755Z,5.85
2024-01-27T05:42:30.734Z,6.45
2024-01-27T05:46:17.698Z,5.20
2024-01-27T05:50:03.744Z,6.23
2024-01-27T05:53:52.797Z,6.17
2024-01-27T05:57:41.847Z,5.50
2024-01-27T06:01:28.816Z,5.07
2024-01-27T06:05:16.775Z,5.86
2024-01-27T06:09:03.739Z,5.25
2024-01-27T06:12:54.863Z,5.04
2024-01-27T06:16:43.724Z,5.92
2024-01-27T06:20:30.812Z,6.12
2024-01-27T06:24:17.820Z,5.45
2024-01-27T06:28:06.714Z,6.18
2024-01-27T06:31:53.752Z,5.15
2024-01-27T06:35:39.685Z,7.16
2024-01-27T06:39:26.777Z,5.56
2024-01-27T06:43:15.714Z,5.92
2024-01-27T06:47:02.740Z,6.08
2024-01-27T06:50:48.839Z,6.06
2024-01-27T06:54:35.860Z,5.48
2024-01-27T06:58:24.747Z,4.95
2024-01-27T07:02:11.779Z,5.08
2024-01-27T07:05:58.840Z,6.75
2024-01-27T07:09:45.767Z,5.72
2024-01-27T07:13:37.714Z,6.03
2024-01-27T07:17:24.853Z,6.51
2024-01-27T07:21:10.834Z,7.82
2024-01-27T07:24:59.787Z,16.29
2024-01-27T07:28:48.799Z,14.94
2024-01-27T07:32:38.845Z,11.02
2024-01-27T07:36:27.933Z,17.43
2024-01-27T07:40:16.787Z,15.13
2024-01-27T07:44:05.877Z,12.26
2024-01-27T07:47:52.873Z,18.13
2024-01-27T07:51:38.818Z,16.28
2024-01-27T07:55:27.731Z,12.33
2024-01-27T07:59:21.747Z,11.27
2024-01-27T08:03:08.827Z,11.91
2024-01-27T08:07:04.797Z,10.49
2024-01-27T08:10:51.768Z,7.70
2024-01-27T08:14:41.961Z,8.11
2024-01-27T08:18:30.056Z,6.23
2024-01-27T08:22:18.867Z,5.83
2024-01-27T08:26:06.802Z,5.91
2024-01-27T08:29:58.511Z,5.66
2024-01-27T08:33:54.340Z,5.66
2024-01-27T08:37:46.764Z,6.41
2024-01-27T08:41:33.739Z,8.24
2024-01-27T08:45:24.817Z,8.61
2024-01-27T08:50:38.793Z,7.98
2024-01-27T08:54:25.901Z,7.76
2024-01-27T08:58:13.846Z,8.11
2024-01-27T09:02:01.866Z,8.32
2024-01-27T09:05:52.850Z,7.87
2024-01-27T09:09:39.857Z,7.30
2024-01-27T09:13:26.857Z,9.67
2024-01-27T09:17:13.875Z,6.78
2024-01-27T09:21:02.826Z,8.33
2024-01-27T09:24:49.938Z,8.35
2024-01-27T09:28:35.803Z,7.81
2024-01-27T09:32:23.814Z,7.27
2024-01-27T09:36:12.883Z,8.40
2024-01-27T09:40:00.836Z,7.73
2024-01-27T09:43:48.805Z,7.74
2024-01-27T09:47:36.917Z,7.74
2024-01-27T09:51:27.915Z,7.70
2024-01-27T09:55:14.862Z,7.35
2024-01-27T09:59:03.778Z,7.60
2024-01-27T10:02:52.948Z,7.99
2024-01-27T10:06:43.067Z,6.99
2024-01-27T10:10:34.809Z,7.49
2024-01-27T10:14:26.814Z,9.37
2024-01-27T10:18:26.955Z,8.48
2024-01-27T10:22:20.792Z,11.22
2024-01-27T10:26:08.795Z,8.56
2024-01-27T10:29:55.929Z,9.55
2024-01-27T10:33:42.883Z,11.11
2024-01-27T10:37:31.894Z,10.06
2024-01-27T10:41:27.853Z,7.96
2024-01-27T10:45:17.998Z,7.52
2024-01-27T10:49:10.990Z,7.46
2024-01-27T10:53:13.286Z,8.18
2024-01-27T10:57:04.014Z,9.15
2024-01-27T11:01:01.327Z,7.88
2024-01-27T11:04:48.957Z,6.71
2024-01-27T11:08:47.241Z,7.14
2024-01-27T11:12:37.964Z,8.78
2024-01-27T11:16:35.868Z,8.60
2024-01-27T11:20:26.857Z,11.06
2024-01-27T11:24:15.992Z,9.29
2024-01-27T11:28:03.832Z,8.56
2024-01-27T11:31:49.913Z,6.92
2024-01-27T11:35:37.911Z,7.22
2024-01-27T11:39:41.946Z,11.46
2024-01-27T11:43:29.911Z,8.80
2024-01-27T11:47:16.827Z,22.26
2024-01-27T11:51:03.955Z,35.78
2024-01-27T11:54:52.934Z,15.31
2024-01-27T11:58:40.894Z,14.68
2024-01-27T12:02:27.870Z,9.33
2024-01-27T12:06:16.389Z,7.77
2024-01-27T12:10:05.896Z,6.70
2024-01-27T12:13:52.874Z,9.41
2024-01-27T12:17:39.846Z,11.81
2024-01-27T12:21:27.878Z,9.61
2024-01-27T12:25:28.101Z,15.55
2024-01-27T12:29:16.859Z,11.37
2024-01-27T12:33:05.039Z,10.24
2024-01-27T12:36:59.825Z,10.51
2024-01-27T12:40:49.971Z,12.33
2024-01-27T12:44:42.907Z,12.84
2024-01-27T12:48:32.573Z,9.22
2024-01-27T12:52:20.886Z,14.90
2024-01-27T12:56:09.906Z,22.20
2024-01-27T12:59:57.005Z,10.04
2024-01-27T13:03:45.863Z,6.45
2024-01-27T13:07:33.916Z,11.86
2024-01-27T13:11:22.913Z,11.49
2024-01-27T13:15:09.954Z,10.47
2024-01-27T13:18:56.888Z,9.58
2024-01-27T13:22:43.879Z,8.30
2024-01-27T13:26:32.836Z,8.26
2024-01-27T13:30:24.906Z,10.61
2024-01-27T13:34:13.015Z,8.95
2024-01-27T13:38:00.835Z,8.92
2024-01-27T13:41:49.823Z,10.83
2024-01-27T13:45:36.857Z,9.98
2024-01-27T13:49:23.012Z,12.18
2024-01-27T13:53:13.888Z,11.02
2024-01-27T13:57:02.900Z,12.81
2024-01-27T14:00:49.965Z,18.96
2024-01-27T14:04:36.913Z,16.81
2024-01-27T14:08:25.834Z,15.97
2024-01-27T14:12:14.908Z,16.90
2024-01-27T14:16:01.873Z,18.97
2024-01-27T14:19:48.022Z,20.62
2024-01-27T14:23:36.863Z,19.40
2024-01-27T14:27:34.060Z,17.73
2024-01-27T14:31:21.934Z,24.97
2024-01-27T14:35:08.947Z,21.68
2024-01-27T14:38:56.931Z,24.21
2024-01-27T14:42:47.999Z,26.80
2024-01-27T14:46:35.907Z,27.46
2024-01-27T14:50:22.923Z,14.11
2024-01-27T14:54:11.936Z,19.58
2024-01-27T14:58:00.865Z,21.09
2024-01-27T15:01:47.897Z,16.14
2024-01-27T15:05:33.920Z,17.98
2024-01-27T15:09:23.968Z,17.38
2024-01-27T15:13:12.937Z,16.51
2024-01-27T15:17:00.855Z,24.44
2024-01-27T15:20:47.898Z,26.10
2024-01-27T15:24:34.887Z,26.17
2024-01-27T15:28:24.856Z,23.84
2024-01-27T15:32:11.835Z,20.94
2024-01-27T15:35:58.968Z,23.96
2024-01-27T15:39:47.178Z,25.54
2024-01-27T15:43:38.894Z,27.31
2024-01-27T15:47:27.958Z,24.73
2024-01-27T15:51:15.929Z,26.03
2024-01-27T15:55:02.841Z,27.16
2024-01-27T15:58:51.915Z,25.13
2024-01-27T16:02:38.921Z,25.08
2024-01-27T16:06:25.926Z,19.86
2024-01-27T16:10:13.934Z,28.73
2024-01-27T16:14:05.895Z,26.92
2024-01-27T16:17:52.936Z,36.29
2024-01-27T16:21:38.947Z,42.52
2024-01-27T16:25:27.031Z,31.50
2024-01-27T16:29:15.885Z,23.09
2024-01-27T16:33:03.995Z,21.41
2024-01-27T16:36:49.938Z,29.05
2024-01-27T16:40:36.855Z,42.48
2024-01-27T16:44:25.890Z,54.52
2024-01-27T16:48:14.037Z,49.46
2024-01-27T16:51:59.902Z,31.52
2024-01-27T16:55:48.868Z,31.61
2024-01-27T16:59:37.889Z,28.51
2024-01-27T17:03:25.065Z,22.42
2024-01-27T17:07:11.844Z,22.95
2024-01-27T17:11:00.919Z,26.35
2024-01-27T17:14:50.901Z,28.65
2024-01-27T17:18:39.042Z,28.99
2024-01-27T17:22:24.883Z,27.42
2024-01-27T17:26:11.920Z,24.26
2024-01-27T17:30:00.928Z,23.60
2024-01-27T17:33:48.982Z,29.65
2024-01-27T17:37:34.880Z,16.03
2024-01-27T17:41:21.942Z,22.46
2024-01-27T17:45:10.968Z,17.87
2024-01-27T17:48:59.124Z,17.95
2024-01-27T17:52:46.894Z,17.21
2024-01-27T17:56:37.866Z,14.28
2024-01-27T18:00:30.985Z,15.88
2024-01-27T18:04:17.979Z,14.78
2024-01-27T18:08:03.889Z,14.04
2024-01-27T18:11:50.943Z,18.66
2024-01-27T18:15:39.983Z,11.38
2024-01-27T18:19:27.885Z,11.88
2024-01-27T18:23:13.959Z,12.45
2024-01-27T18:27:01.981Z,14.25
2024-01-27T18:30:51.916Z,13.21
2024-01-27T18:34:40.045Z,12.38
2024-01-27T18:38:25.934Z,11.68
2024-01-27T18:42:12.948Z,19.33
2024-01-27T18:46:04.936Z,18.74
2024-01-27T18:49:52.118Z,16.78
2024-01-27T18:53:40.947Z,15.43
2024-01-27T18:57:28.916Z,15.54
2024-01-27T19:01:19.956Z,12.27
2024-01-27T19:05:11.890Z,11.89
2024-01-27T19:08:58.967Z,11.80
2024-01-27T19:12:45.961Z,11.92
2024-01-27T19:16:34.893Z,11.71
2024-01-27T19:20:23.936Z,14.68
2024-01-27T19:24:09.966Z,16.25
2024-01-27T19:27:59.800Z,15.42
2024-01-27T19:31:53.521Z,15.38
2024-01-27T19:35:40.951Z,21.37
2024-01-27T19:39:31.250Z,15.85
2024-01-27T19:43:19.940Z,16.25
2024-01-27T19:47:15.899Z,19.08
2024-01-27T19:51:07.183Z,18.92
2024-01-27T19:54:53.980Z,16.75
2024-01-27T19:58:41.025Z,13.78
2024-01-27T20:02:32.924Z,14.29
2024-01-27T20:06:24.143Z,20.95
2024-01-27T20:10:10.900Z,15.47
2024-01-27T20:14:00.882Z,16.08
2024-01-27T20:17:51.088Z,13.95
2024-01-27T20:21:41.940Z,13.57
2024-01-27T20:25:28.945Z,15.39
2024-01-27T20:29:15.967Z,15.09
2024-01-27T20:33:06.160Z,15.86
2024-01-27T20:36:55.026Z,17.36
2024-01-27T20:40:41.880Z,17.10
2024-01-27T20:44:29.021Z,23.08
2024-01-27T20:48:23.747Z,24.49
2024-01-27T20:52:11.903Z,24.66
2024-01-27T20:55:58.993Z,30.57
2024-01-27T20:59:46.900Z,30.82
2024-01-27T21:03:36.029Z,17.93
2024-01-27T21:07:25.115Z,16.62
2024-01-27T21:11:17.025Z,20.60
2024-01-27T21:15:04.932Z,21.31
2024-01-27T21:18:54.011Z,20.52
2024-01-27T21:22:40.938Z,24.13
2024-01-27T21:26:27.961Z,33.63
2024-01-27T21:30:15.973Z,38.97
2024-01-27T21:34:04.999Z,36.82
2024-01-27T21:37:51.943Z,34.09
2024-01-27T21:41:37.940Z,29.56
2024-01-27T21:45:29.005Z,27.92
2024-01-27T21:49:19.020Z,22.34
2024-01-27T21:53:05.951Z,23.61
2024-01-27T21:56:51.992Z,25.23
2024-01-27T22:00:39.115Z,25.48
2024-01-27T22:04:27.997Z,28.64
2024-01-27T22:08:14.972Z,26.83
2024-01-27T22:12:01.974Z,27.06
2024-01-27T22:15:51.605Z,28.22
2024-01-27T22:19:43.143Z,20.83
2024-01-27T22:23:29.968Z,21.43
2024-01-27T22:27:15.972Z,19.78
2024-01-27T22:31:02.905Z,22.29
2024-01-27T22:34:53.028Z,22.92
2024-01-27T22:38:39.987Z,22.11
2024-01-27T22:42:25.934Z,22.41
2024-01-27T22:46:12.996Z,23.15
2024-01-27T22:50:02.002Z,18.73
2024-01-27T22:53:48.909Z,17.81
2024-01-27T22:57:34.966Z,17.68
2024-01-27T23:01:22.905Z,18.59
2024-01-27T23:05:11.904Z,17.25
2024-01-27T23:08:58.971Z,19.07
2024-01-27T23:12:44.924Z,26.31
2024-01-27T23:16:31.930Z,18.96
2024-01-27T23:20:23.945Z,20.13
2024-01-27T23:24:11.177Z,17.25
2024-01-27T23:27:57.991Z,20.93
2024-01-27T23:31:45.990Z,16.48
2024-01-27T23:35:34.888Z,15.94
2024-01-27T23:39:22.014Z,14.97
2024-01-27T23:43:07.991Z,14.23
2024-01-27T23:46:54.974Z,12.51
2024-01-27T23:50:44.068Z,12.80
2024-01-27T23:54:31.972Z,12.58
2024-01-27T23:58:18.938Z,12.14
